Time;durP1;ratioP1;P1;durP2;ratioP2;P2;SDS_P1;SDS_P2;PMS_P1;PMS_P2;Temp;Humidity;BMP_temperature;BMP_pressure;BME280_temperature;BME280_humidity;BME280_pressure;Samples;Min_cycle;Max_cycle;Signal;HPM_P1;HPM_P2
2023/11/01 00:00:05;;;;;;;13.13;2.30;;;;;;;;;;5033829;28;20287;-91
2023/11/01 00:02:33;;;;;;;16.23;2.80;;;;;;;;;;5034175;28;20185;-91
2023/11/01 00:05:00;;;;;;;13.80;2.20;;;;;;;;;;5033791;28;20228;-93
2023/11/01 00:07:29;;;;;;;10.20;2.10;;;;;;;;;;5016665;28;20196;-93
2023/11/01 00:09:56;;;;;;;18.97;3.23;;;;;;;;;;5034285;28;20609;-92
2023/11/01 00:12:24;;;;;;;11.63;2.63;;;;;;;;;;5034082;28;20200;-92
2023/11/01 00:14:51;;;;;;;11.77;2.87;;;;;;;;;;5033457;28;20234;-91
2023/11/01 00:17:18;;;;;;;11.53;2.93;;;;;;;;;;5033811;28;20638;-92
2023/11/01 00:19:45;;;;;;;16.27;2.63;;;;;;;;;;5034284;28;20283;-91
2023/11/01 00:22:13;;;;;;;15.97;2.53;;;;;;;;;;5033242;28;20235;-92
2023/11/01 00:24:41;;;;;;;13.90;2.47;;;;;;;;;;5053376;28;20259;-92
2023/11/01 00:27:08;;;;;;;11.93;2.73;;;;;;;;;;5052940;28;20290;-92
2023/11/01 00:29:36;;;;;;;13.93;2.63;;;;;;;;;;5053203;28;20345;-92
2023/11/01 00:32:03;;;;;;;13.57;2.27;;;;;;;;;;5053679;28;20212;-92
2023/11/01 00:34:31;;;;;;;12.83;2.63;;;;;;;;;;5040907;28;20274;-92
2023/11/01 00:36:59;;;;;;;13.43;2.67;;;;;;;;;;5033674;28;20295;-92
2023/11/01 00:39:26;;;;;;;11.90;2.37;;;;;;;;;;5033503;28;20227;-92
2023/11/01 00:41:55;;;;;;;14.40;2.53;;;;;;;;;;5029610;28;20189;-92
2023/11/01 00:44:22;;;;;;;15.97;2.33;;;;;;;;;;5013635;28;20609;-92
2023/11/01 00:46:49;;;;;;;12.50;2.53;;;;;;;;;;5013864;28;20665;-91
2023/11/01 00:49:16;;;;;;;10.93;2.30;;;;;;;;;;5021499;28;20200;-92
2023/11/01 00:51:44;;;;;;;16.10;3.00;;;;;;;;;;5036327;28;20188;-92
2023/11/01 00:54:11;;;;;;;12.27;2.23;;;;;;;;;;5033565;28;20628;-92
2023/11/01 00:56:38;;;;;;;13.53;2.43;;;;;;;;;;5033022;28;20189;-91
2023/11/01 00:59:07;;;;;;;16.07;2.43;;;;;;;;;;5033219;28;20228;-92
2023/11/01 01:01:34;;;;;;;13.10;2.30;;;;;;;;;;5033901;28;20196;-93
2023/11/01 01:04:02;;;;;;;12.83;2.50;;;;;;;;;;5033717;28;20245;-93
2023/11/01 01:06:29;;;;;;;15.90;2.80;;;;;;;;;;5035625;28;20200;-92
2023/11/01 01:08:57;;;;;;;10.30;2.07;;;;;;;;;;5037200;28;20295;-92
2023/11/01 01:11:24;;;;;;;16.60;2.30;;;;;;;;;;5036859;28;20276;-91
2023/11/01 01:13:51;;;;;;;9.37;2.33;;;;;;;;;;5037027;28;20291;-92
2023/11/01 01:16:20;;;;;;;13.63;1.70;;;;;;;;;;5037235;28;20259;-91
2023/11/01 01:18:47;;;;;;;17.83;2.63;;;;;;;;;;5037292;28;20616;-91
2023/11/01 01:21:15;;;;;;;9.70;2.07;;;;;;;;;;5037077;28;20235;-92
2023/11/01 01:23:42;;;;;;;8.93;1.90;;;;;;;;;;5037155;28;20266;-91
2023/11/01 01:26:10;;;;;;;11.73;2.40;;;;;;;;;;5036880;28;20298;-91
2023/11/01 01:28:37;;;;;;;9.10;2.20;;;;;;;;;;5037143;28;20231;-91
2023/11/01 01:31:05;;;;;;;9.40;2.07;;;;;;;;;;5036940;28;20312;-92
2023/11/01 01:33:33;;;;;;;11.80;2.17;;;;;;;;;;5036459;28;20208;-92
2023/11/01 01:36:02;;;;;;;13.50;2.53;;;;;;;;;;5037390;28;20212;-92
2023/11/01 01:38:29;;;;;;;9.60;1.90;;;;;;;;;;5036646;28;20193;-91
2023/11/01 01:40:56;;;;;;;10.37;1.70;;;;;;;;;;5036592;28;20228;-92
2023/11/01 01:43:24;;;;;;;7.53;1.87;;;;;;;;;;5036725;28;20232;-91
2023/11/01 01:45:56;;;;;;;9.13;2.17;;;;;;;;;;5036670;28;20618;-91
2023/11/01 01:48:23;;;;;;;11.83;2.00;;;;;;;;;;5036626;28;20216;-91
2023/11/01 01:50:52;;;;;;;11.33;1.80;;;;;;;;;;5036546;28;20203;-90
2023/11/01 01:53:19;;;;;;;12.60;1.80;;;;;;;;;;5036252;28;20219;-91
2023/11/01 01:55:46;;;;;;;9.53;1.70;;;;;;;;;;5039335;28;20262;-91
2023/11/01 01:58:14;;;;;;;10.23;1.63;;;;;;;;;;5045883;28;20256;-92
2023/11/01 02:00:42;;;;;;;14.67;1.70;;;;;;;;;;5036514;28;20641;-92
2023/11/01 02:03:09;;;;;;;9.77;1.63;;;;;;;;;;5035960;28;20715;-91
2023/11/01 02:05:37;;;;;;;9.83;1.70;;;;;;;;;;5036065;28;20684;-91
2023/11/01 02:08:06;;;;;;;14.73;2.20;;;;;;;;;;5036085;28;20228;-91
2023/11/01 02:10:33;;;;;;;9.47;1.40;;;;;;;;;;5035813;28;20184;-92
2023/11/01 02:13:09;;;;;;;8.37;1.60;;;;;;;;;;5036356;28;20247;-92
2023/11/01 02:15:36;;;;;;;9.93;2.20;;;;;;;;;;5036077;28;20247;-92
2023/11/01 02:18:04;;;;;;;12.40;1.90;;;;;;;;;;5034989;28;20680;-92
2023/11/01 02:20:32;;;;;;;10.37;1.73;;;;;;;;;;5036063;28;20250;-91
2023/11/01 02:23:00;;;;;;;10.47;2.07;;;;;;;;;;5035624;28;20288;-91
2023/11/01 02:25:28;;;;;;;9.70;1.87;;;;;;;;;;5035936;28;20238;-91
2023/11/01 02:27:56;;;;;;;8.90;2.00;;;;;;;;;;5035532;28;20191;-92
2023/11/01 02:30:24;;;;;;;9.03;2.17;;;;;;;;;;5035806;28;20243;-92
2023/11/01 02:32:52;;;;;;;13.10;2.00;;;;;;;;;;5035746;28;20280;-91
2023/11/01 02:35:19;;;;;;;9.70;1.87;;;;;;;;;;5035325;28;20224;-92
2023/11/01 02:37:48;;;;;;;11.87;1.93;;;;;;;;;;5030694;28;20217;-92
2023/11/01 02:40:16;;;;;;;11.67;2.10;;;;;;;;;;5015642;28;20204;-91
2023/11/01 02:42:45;;;;;;;9.13;2.27;;;;;;;;;;5015543;28;20665;-91
2023/11/01 02:45:12;;;;;;;13.63;2.47;;;;;;;;;;5029119;28;20243;-91
2023/11/01 02:47:40;;;;;;;13.63;2.40;;;;;;;;;;5035365;28;20238;-91
2023/11/01 02:50:09;;;;;;;13.17;2.43;;;;;;;;;;5035016;28;20279;-90
2023/11/01 02:52:37;;;;;;;10.50;2.27;;;;;;;;;;5035365;28;20204;-92
2023/11/01 02:55:05;;;;;;;11.93;2.13;;;;;;;;;;5035528;28;20216;-91
2023/11/01 02:57:33;;;;;;;13.00;2.40;;;;;;;;;;5034868;28;20224;-91
2023/11/01 03:00:06;;;;;;;12.23;2.70;;;;;;;;;;5017871;28;20196;-91
2023/11/01 03:02:33;;;;;;;11.00;2.27;;;;;;;;;;5034982;28;20262;-91
2023/11/01 03:05:00;;;;;;;7.63;1.93;;;;;;;;;;5034851;28;20200;-91
2023/11/01 03:07:28;;;;;;;15.67;2.70;;;;;;;;;;5034922;28;20291;-90
2023/11/01 03:09:55;;;;;;;10.80;2.63;;;;;;;;;;5034674;28;20230;-89
2023/11/01 03:12:22;;;;;;;15.77;2.53;;;;;;;;;;5020719;28;20236;-90
2023/11/01 03:14:49;;;;;;;12.43;2.17;;;;;;;;;;5022966;28;20196;-91
2023/11/01 03:17:19;;;;;;;10.17;1.97;;;;;;;;;;5035105;28;20207;-92
2023/11/01 03:19:46;;;;;;;13.43;1.97;;;;;;;;;;5034934;28;20318;-91
2023/11/01 03:22:13;;;;;;;10.50;2.23;;;;;;;;;;5034461;28;20727;-91
2023/11/01 03:24:41;;;;;;;10.70;2.43;;;;;;;;;;5034783;28;20665;-90
2023/11/01 03:27:08;;;;;;;8.03;2.07;;;;;;;;;;5034474;28;20235;-90
2023/11/01 03:29:35;;;;;;;13.10;2.20;;;;;;;;;;5033866;28;20294;-91
2023/11/01 03:32:03;;;;;;;8.60;2.37;;;;;;;;;;5034980;28;20291;-91
2023/11/01 03:34:31;;;;;;;8.57;1.93;;;;;;;;;;5034531;28;20251;-91
2023/11/01 03:36:58;;;;;;;10.40;1.90;;;;;;;;;;5034109;28;20224;-91
2023/11/01 03:39:26;;;;;;;11.43;2.40;;;;;;;;;;5034184;28;20232;-91
2023/11/01 03:41:53;;;;;;;14.57;2.60;;;;;;;;;;5016892;28;20200;-91
2023/11/01 03:44:21;;;;;;;11.40;2.13;;;;;;;;;;5034417;28;20708;-91
2023/11/01 03:46:48;;;;;;;10.30;1.90;;;;;;;;;;5034441;28;20657;-91
2023/11/01 03:49:15;;;;;;;9.13;1.97;;;;;;;;;;5034173;28;20227;-91
2023/11/01 03:51:44;;;;;;;9.20;2.03;;;;;;;;;;5016885;28;20196;-90
2023/11/01 03:54:11;;;;;;;11.10;2.00;;;;;;;;;;5017074;28;20203;-91
2023/11/01 03:56:43;;;;;;;9.97;1.97;;;;;;;;;;5033206;28;20318;-91
2023/11/01 03:59:11;;;;;;;9.47;1.87;;;;;;;;;;5029747;28;20199;-90
2023/11/01 04:01:38;;;;;;;9.47;2.17;;;;;;;;;;5052698;28;20628;-90
2023/11/01 04:04:05;;;;;;;7.90;1.83;;;;;;;;;;5033890;28;20737;-91
2023/11/01 04:06:33;;;;;;;8.93;2.20;;;;;;;;;;5033574;28;20231;-90
2023/11/01 04:09:01;;;;;;;10.90;1.97;;;;;;;;;;5034197;28;20272;-90
2023/11/01 04:11:28;;;;;;;5.90;1.77;;;;;;;;;;5034098;28;20232;-90
2023/11/01 04:13:56;;;;;;;9.70;1.87;;;;;;;;;;5048976;28;20680;-89
2023/11/01 04:16:23;;;;;;;6.33;2.20;;;;;;;;;;5042997;28;20267;-91
2023/11/01 04:18:51;;;;;;;7.73;1.90;;;;;;;;;;5034140;28;20212;-92
2023/11/01 04:21:18;;;;;;;10.73;2.13;;;;;;;;;;5033701;28;20650;-92
2023/11/01 04:23:45;;;;;;;7.03;1.83;;;;;;;;;;5014231;28;20283;-92
2023/11/01 04:26:14;;;;;;;15.43;2.10;;;;;;;;;;5014123;28;20223;-92
2023/11/01 04:28:42;;;;;;;8.53;2.17;;;;;;;;;;5014407;28;20285;-93
2023/11/01 04:31:09;;;;;;;7.87;1.70;;;;;;;;;;5013681;28;20260;-91
2023/11/01 04:33:37;;;;;;;6.60;1.33;;;;;;;;;;5030742;28;20232;-92
2023/11/01 04:36:08;;;;;;;6.03;1.40;;;;;;;;;;5033505;28;20309;-92
2023/11/01 04:38:35;;;;;;;5.07;1.27;;;;;;;;;;5033831;28;20220;-92
2023/11/01 04:41:03;;;;;;;2.63;1.20;;;;;;;;;;5033265;28;20235;-92
2023/11/01 04:43:31;;;;;;;4.67;1.30;;;;;;;;;;5049248;28;20208;-92
2023/11/01 04:45:58;;;;;;;3.60;1.20;;;;;;;;;;5033352;28;20284;-92
2023/11/01 04:48:26;;;;;;;4.50;0.90;;;;;;;;;;5033492;28;20235;-91
2023/11/01 04:50:53;;;;;;;5.20;1.10;;;;;;;;;;5033362;28;20224;-92
2023/11/01 04:53:20;;;;;;;6.17;1.00;;;;;;;;;;5033510;28;20216;-92
2023/11/01 04:55:50;;;;;;;4.33;0.97;;;;;;;;;;5033587;28;20213;-92
2023/11/01 04:58:18;;;;;;;4.93;0.87;;;;;;;;;;5033269;28;20197;-92
2023/11/01 05:00:47;;;;;;;3.53;0.87;;;;;;;;;;5032942;28;20188;-91
2023/11/01 05:03:14;;;;;;;2.40;0.60;;;;;;;;;;5032400;28;20623;-92
2023/11/01 05:05:41;;;;;;;2.87;0.73;;;;;;;;;;5032840;28;20287;-92
2023/11/01 05:08:09;;;;;;;1.80;0.50;;;;;;;;;;5033343;28;20223;-90
2023/11/01 05:10:36;;;;;;;1.80;0.60;;;;;;;;;;5016311;28;20201;-91
2023/11/01 05:13:05;;;;;;;3.83;0.50;;;;;;;;;;5033299;28;20236;-92
2023/11/01 05:15:32;;;;;;;2.47;0.57;;;;;;;;;;5033479;28;20239;-91
2023/11/01 05:18:01;;;;;;;3.27;0.70;;;;;;;;;;5033083;28;20193;-92
2023/11/01 05:20:28;;;;;;;2.07;0.60;;;;;;;;;;5033188;28;20613;-92
2023/11/01 05:22:56;;;;;;;4.57;0.70;;;;;;;;;;5033203;28;20189;-92
2023/11/01 05:25:25;;;;;;;1.90;0.60;;;;;;;;;;5032943;28;20635;-91
2023/11/01 05:27:52;;;;;;;1.50;0.30;;;;;;;;;;5038736;28;20207;-91
2023/11/01 05:30:20;;;;;;;3.00;0.57;;;;;;;;;;5044519;28;20221;-90
2023/11/01 05:32:47;;;;;;;2.07;0.50;;;;;;;;;;5033083;28;20287;-91
2023/11/01 05:35:16;;;;;;;1.70;0.50;;;;;;;;;;5033012;28;20208;-91
2023/11/01 05:37:44;;;;;;;3.50;0.53;;;;;;;;;;5033132;28;20315;-92
2023/11/01 05:40:14;;;;;;;1.60;0.40;;;;;;;;;;5033012;28;20287;-91
2023/11/01 05:42:42;;;;;;;3.87;0.60;;;;;;;;;;5032829;28;20197;-90
2023/11/01 05:45:10;;;;;;;1.47;0.40;;;;;;;;;;5032736;28;20195;-91
2023/11/01 05:47:37;;;;;;;2.23;0.50;;;;;;;;;;5032505;28;20303;-91
2023/11/01 05:50:06;;;;;;;2.30;0.50;;;;;;;;;;5027442;28;20220;-91
2023/11/01 05:52:35;;;;;;;1.77;0.47;;;;;;;;;;5014146;28;20216;-91
2023/11/01 05:55:03;;;;;;;2.97;0.60;;;;;;;;;;5017068;28;20228;-91
2023/11/01 05:57:30;;;;;;;2.17;0.60;;;;;;;;;;5034717;28;20224;-91
2023/11/01 05:59:58;;;;;;;4.80;0.70;;;;;;;;;;5036741;28;20292;-92
2023/11/01 06:02:25;;;;;;;3.17;0.60;;;;;;;;;;5036665;28;20201;-91
2023/11/01 06:04:53;;;;;;;2.10;0.40;;;;;;;;;;5038003;28;20189;-90
2023/11/01 06:07:20;;;;;;;1.73;0.50;;;;;;;;;;5037973;28;20200;-91
2023/11/01 06:09:48;;;;;;;1.53;0.43;;;;;;;;;;5037141;28;20717;-91
2023/11/01 06:12:16;;;;;;;1.33;0.50;;;;;;;;;;5036256;28;20283;-91
2023/11/01 06:14:44;;;;;;;1.93;0.60;;;;;;;;;;5036198;28;20254;-91
2023/11/01 06:17:11;;;;;;;2.50;0.60;;;;;;;;;;5035244;28;20319;-90
2023/11/01 06:19:38;;;;;;;1.60;0.40;;;;;;;;;;5036126;28;20247;-92
2023/11/01 06:22:06;;;;;;;2.43;0.60;;;;;;;;;;5036235;28;20825;-91
2023/11/01 06:24:33;;;;;;;0.90;0.50;;;;;;;;;;5046839;28;20200;-91
2023/11/01 06:27:02;;;;;;;2.70;0.60;;;;;;;;;;5026501;28;20200;-91
2023/11/01 06:29:30;;;;;;;2.00;0.70;;;;;;;;;;5034875;28;20199;-92
2023/11/01 06:31:57;;;;;;;3.70;0.60;;;;;;;;;;5035688;28;20360;-92
2023/11/01 06:34:24;;;;;;;1.57;0.50;;;;;;;;;;5036069;28;20229;-92
2023/11/01 06:36:52;;;;;;;1.87;0.50;;;;;;;;;;5025790;28;20753;-92
2023/11/01 06:39:19;;;;;;;1.87;0.50;;;;;;;;;;5015629;28;20232;-91
2023/11/01 06:41:47;;;;;;;2.83;0.50;;;;;;;;;;5016007;28;20207;-91
2023/11/01 06:44:15;;;;;;;1.87;0.60;;;;;;;;;;5015519;28;20232;-91
2023/11/01 06:46:43;;;;;;;1.73;0.67;;;;;;;;;;5023619;28;20612;-90
2023/11/01 06:49:10;;;;;;;4.10;0.70;;;;;;;;;;5035589;28;20676;-91
2023/11/01 06:51:37;;;;;;;5.97;1.00;;;;;;;;;;5035473;28;20228;-90
2023/11/01 06:54:05;;;;;;;3.77;0.60;;;;;;;;;;5035542;28;20197;-90
2023/11/01 06:56:32;;;;;;;4.87;0.70;;;;;;;;;;5034990;28;20628;-89
2023/11/01 06:58:59;;;;;;;4.73;0.80;;;;;;;;;;5034847;28;20196;-90
2023/11/01 07:01:28;;;;;;;4.53;0.90;;;;;;;;;;5035121;28;20764;-89
2023/11/01 07:03:55;;;;;;;4.20;1.03;;;;;;;;;;5034820;28;20193;-90
2023/11/01 07:06:23;;;;;;;5.00;1.23;;;;;;;;;;5033955;28;20251;-89
2023/11/01 07:08:50;;;;;;;4.50;0.87;;;;;;;;;;5035309;28;20227;-89
2023/11/01 07:11:18;;;;;;;3.27;0.80;;;;;;;;;;5034940;28;20296;-90
2023/11/01 07:13:46;;;;;;;4.43;0.97;;;;;;;;;;5034821;28;20236;-90
2023/11/01 07:16:13;;;;;;;6.00;1.30;;;;;;;;;;5034670;28;20247;-89
2023/11/01 07:18:42;;;;;;;5.93;1.20;;;;;;;;;;5034890;28;20627;-90
2023/11/01 07:21:11;;;;;;;4.70;1.00;;;;;;;;;;5034794;28;20197;-90
2023/11/01 07:23:38;;;;;;;6.23;1.07;;;;;;;;;;5034721;28;20246;-90
2023/11/01 07:26:05;;;;;;;5.67;1.03;;;;;;;;;;5034748;28;20303;-90
2023/11/01 07:28:32;;;;;;;3.43;1.00;;;;;;;;;;5034511;28;20270;-91
2023/11/01 07:31:00;;;;;;;6.13;1.30;;;;;;;;;;5038521;28;20315;-88
2023/11/01 07:33:28;;;;;;;6.67;1.20;;;;;;;;;;5034578;28;20247;-91
2023/11/01 07:35:56;;;;;;;7.93;1.53;;;;;;;;;;5034714;28;20246;-90
2023/11/01 07:38:24;;;;;;;9.10;1.63;;;;;;;;;;5034445;28;20278;-90
2023/11/01 07:40:51;;;;;;;7.83;1.30;;;;;;;;;;5034268;28;20224;-90
2023/11/01 07:43:18;;;;;;;4.53;1.07;;;;;;;;;;5034337;28;20200;-90
2023/11/01 07:45:45;;;;;;;6.30;1.20;;;;;;;;;;5034434;28;20232;-90
2023/11/01 07:48:13;;;;;;;8.00;1.43;;;;;;;;;;5034623;28;20609;-90
2023/11/01 07:50:40;;;;;;;4.80;1.00;;;;;;;;;;5034159;28;20576;-90
2023/11/01 07:53:09;;;;;;;5.87;1.17;;;;;;;;;;5033640;28;20250;-87
2023/11/01 07:55:36;;;;;;;9.10;1.27;;;;;;;;;;5032982;28;20283;-86
2023/11/01 07:58:03;;;;;;;7.63;1.30;;;;;;;;;;5041298;28;20763;-87
2023/11/01 08:00:30;;;;;;;5.07;1.20;;;;;;;;;;5032585;28;20228;-87
2023/11/01 08:02:58;;;;;;;5.80;1.80;;;;;;;;;;5032689;28;20732;-86
2023/11/01 08:05:25;;;;;;;5.70;1.57;;;;;;;;;;5033186;28;20211;-87
2023/11/01 08:07:53;;;;;;;6.00;1.70;;;;;;;;;;5032728;28;20291;-87
2023/11/01 08:10:22;;;;;;;5.43;1.50;;;;;;;;;;5032807;28;20196;-87
2023/11/01 08:12:49;;;;;;;7.20;1.77;;;;;;;;;;5032119;28;20188;-87
2023/11/01 08:15:16;;;;;;;5.07;1.30;;;;;;;;;;5032099;28;20197;-87
2023/11/01 08:17:43;;;;;;;5.23;1.30;;;;;;;;;;5032207;28;20603;-87
2023/11/01 08:20:11;;;;;;;6.27;1.30;;;;;;;;;;5032101;28;20311;-87
2023/11/01 08:22:38;;;;;;;3.93;1.00;;;;;;;;;;5032401;28;20200;-87
2023/11/01 08:25:07;;;;;;;6.50;1.37;;;;;;;;;;5031909;28;20657;-86
2023/11/01 08:27:35;;;;;;;5.17;1.17;;;;;;;;;;5031816;28;20212;-83
2023/11/01 08:30:03;;;;;;;10.50;1.60;;;;;;;;;;5031828;28;20227;-85
2023/11/01 08:32:30;;;;;;;7.63;1.60;;;;;;;;;;5031794;28;20235;-85
2023/11/01 08:34:58;;;;;;;7.33;1.60;;;;;;;;;;5032156;28;20618;-85
2023/11/01 08:37:25;;;;;;;6.87;1.40;;;;;;;;;;5031742;28;20327;-87
2023/11/01 08:39:52;;;;;;;9.47;1.60;;;;;;;;;;5031666;28;20287;-86
2023/11/01 08:42:20;;;;;;;5.93;1.60;;;;;;;;;;5032111;28;20192;-86
2023/11/01 08:44:48;;;;;;;4.93;1.33;;;;;;;;;;5032082;28;20227;-87
2023/11/01 08:47:30;;;;;;;5.70;1.43;;;;;;;;;;5031898;28;20208;-86
2023/11/01 08:49:58;;;;;;;6.80;1.57;;;;;;;;;;5031291;28;20291;-85
2023/11/01 08:52:25;;;;;;;7.87;1.30;;;;;;;;;;5030431;28;20287;-83
2023/11/01 08:54:52;;;;;;;5.90;1.57;;;;;;;;;;5030571;28;20223;-85
2023/11/01 08:57:22;;;;;;;8.27;1.33;;;;;;;;;;5030784;28;20235;-84
2023/11/01 08:59:51;;;;;;;6.83;1.50;;;;;;;;;;5030408;28;20696;-84
2023/11/01 09:02:19;;;;;;;6.03;1.30;;;;;;;;;;5031114;28;20193;-85
2023/11/01 09:04:46;;;;;;;5.93;2.20;;;;;;;;;;5031027;28;20223;-86
2023/11/01 09:07:13;;;;;;;6.10;1.77;;;;;;;;;;5017417;28;20292;-85
2023/11/01 09:09:41;;;;;;;5.77;1.53;;;;;;;;;;5031126;28;20211;-87
2023/11/01 09:12:09;;;;;;;4.73;1.10;;;;;;;;;;5031781;28;20196;-89
2023/11/01 09:14:37;;;;;;;6.20;1.80;;;;;;;;;;5031091;28;20277;-83
2023/11/01 09:17:05;;;;;;;4.93;1.60;;;;;;;;;;5030789;28;20603;-80
2023/11/01 09:19:33;;;;;;;5.93;1.90;;;;;;;;;;5031497;28;20677;-79
2023/11/01 09:22:00;;;;;;;9.37;2.60;;;;;;;;;;5029696;28;20283;-81
2023/11/01 09:24:27;;;;;;;6.97;1.60;;;;;;;;;;5029734;28;20684;-80
2023/11/01 09:26:55;;;;;;;7.13;1.30;;;;;;;;;;5031669;28;20232;-82
2023/11/01 09:29:22;;;;;;;5.67;1.60;;;;;;;;;;5034187;28;20283;-81
2023/11/01 09:31:49;;;;;;;6.83;1.80;;;;;;;;;;5034624;28;20201;-81
2023/11/01 09:34:19;;;;;;;9.23;1.93;;;;;;;;;;5033452;28;20230;-82
2023/11/01 09:36:46;;;;;;;11.20;2.30;;;;;;;;;;5029827;28;20678;-81
2023/11/01 09:39:13;;;;;;;9.63;1.80;;;;;;;;;;5034712;28;20327;-81
2023/11/01 09:41:48;;;;;;;7.20;2.67;;;;;;;;;;5034060;28;20228;-81
2023/11/01 09:44:17;;;;;;;9.53;2.33;;;;;;;;;;5033723;28;20250;-81
2023/11/01 09:46:44;;;;;;;5.60;2.27;;;;;;;;;;5044901;28;20576;-82
2023/11/01 09:49:12;;;;;;;7.00;1.83;;;;;;;;;;5034252;28;20287;-81
2023/11/01 09:51:40;;;;;;;6.70;1.90;;;;;;;;;;5034158;28;20300;-82
2023/11/01 09:54:11;;;;;;;9.30;2.28;;;;;;;;;;5033708;28;20295;-79
2023/11/01 09:56:40;;;;;;;6.90;1.95;;;;;;;;;;5034104;28;20243;-79
2023/11/01 09:59:07;;;;;;;9.60;1.83;;;;;;;;;;5033904;28;20746;-78
2023/11/01 10:01:35;;;;;;;7.80;1.83;;;;;;;;;;5034387;28;20251;-79
2023/11/01 10:04:03;;;;;;;9.48;2.20;;;;;;;;;;5034303;28;20232;-77
2023/11/01 10:06:30;;;;;;;7.70;1.85;;;;;;;;;;5033909;28;20203;-78
2023/11/01 10:08:59;;;;;;;13.02;2.42;;;;;;;;;;5033973;28;20291;-77
2023/11/01 10:11:28;;;;;;;9.00;2.00;;;;;;;;;;5033649;28;20372;-77
2023/11/01 10:13:55;;;;;;;7.10;1.50;;;;;;;;;;5033945;28;20215;-78
2023/11/01 10:16:23;;;;;;;10.25;1.85;;;;;;;;;;5034113;28;20200;-78
2023/11/01 10:18:51;;;;;;;7.47;1.70;;;;;;;;;;5033857;28;20315;-78
2023/11/01 10:21:18;;;;;;;8.50;1.83;;;;;;;;;;5033928;28;20201;-79
2023/11/01 10:23:45;;;;;;;6.35;1.48;;;;;;;;;;5033386;28;20224;-79
2023/11/01 10:26:14;;;;;;;8.10;1.40;;;;;;;;;;5033728;28;20235;-78
2023/11/01 10:28:42;;;;;;;8.63;1.73;;;;;;;;;;5033914;28;20196;-79
2023/11/01 10:31:09;;;;;;;9.48;1.85;;;;;;;;;;5028846;28;20228;-80
2023/11/01 10:33:37;;;;;;;9.15;1.77;;;;;;;;;;5033720;28;20291;-80
2023/11/01 10:36:05;;;;;;;8.68;2.38;;;;;;;;;;5033375;28;20287;-80
2023/11/01 10:38:33;;;;;;;7.68;1.80;;;;;;;;;;5032599;28;20331;-79
2023/11/01 10:41:01;;;;;;;7.95;2.20;;;;;;;;;;5033183;28;20304;-79
2023/11/01 10:43:30;;;;;;;11.45;2.30;;;;;;;;;;5033541;28;20723;-79
2023/11/01 10:45:58;;;;;;;8.70;2.20;;;;;;;;;;5036046;28;20223;-79
2023/11/01 10:48:25;;;;;;;8.82;1.80;;;;;;;;;;5033095;28;20197;-80
2023/11/01 10:50:53;;;;;;;8.40;2.17;;;;;;;;;;5032433;28;20572;-79
2023/11/01 10:53:22;;;;;;;7.60;2.08;;;;;;;;;;5032096;28;20193;-77
2023/11/01 10:55:51;;;;;;;8.57;2.05;;;;;;;;;;5033146;28;20203;-79
2023/11/01 10:58:21;;;;;;;9.82;1.95;;;;;;;;;;5033240;28;20588;-79
2023/11/01 11:00:54;;;;;;;8.57;1.65;;;;;;;;;;5032885;28;20609;-78
2023/11/01 11:03:24;;;;;;;8.10;1.80;;;;;;;;;;5033109;28;20299;-78
2023/11/01 11:05:52;;;;;;;7.85;1.85;;;;;;;;;;5032683;28;20206;-78
2023/11/01 11:08:19;;;;;;;9.57;2.85;;;;;;;;;;5032191;28;20201;-78
2023/11/01 11:10:46;;;;;;;7.43;2.03;;;;;;;;;;5031796;28;20223;-78
2023/11/01 11:13:26;;;;;;;6.70;1.73;;;;;;;;;;5032655;28;20303;-78
2023/11/01 11:16:02;;;;;;;7.90;1.98;;;;;;;;;;5033346;28;20756;-79
2023/11/01 11:18:51;;;;;;;9.32;1.80;;;;;;;;;;5028988;28;20707;-78
2023/11/01 11:21:37;;;;;;;6.53;1.90;;;;;;;;;;5022733;28;20238;-78
2023/11/01 11:24:28;;;;;;;9.52;2.88;;;;;;;;;;5040788;28;20224;-78
2023/11/01 11:26:55;;;;;;;8.73;2.95;;;;;;;;;;5048129;28;20658;-77
2023/11/01 11:29:37;;;;;;;9.77;2.90;;;;;;;;;;5026566;28;20247;-79
2023/11/01 11:32:07;;;;;;;8.52;1.52;;;;;;;;;;5023703;28;20207;-78
2023/11/01 11:34:34;;;;;;;10.85;2.28;;;;;;;;;;5027158;28;20212;-77
2023/11/01 11:37:05;;;;;;;9.55;2.40;;;;;;;;;;5030346;28;20200;-78
2023/11/01 11:39:52;;;;;;;6.72;1.45;;;;;;;;;;5027095;28;20236;-77
2023/11/01 11:42:38;;;;;;;7.25;1.88;;;;;;;;;;5028577;28;20273;-77
2023/11/01 11:45:05;;;;;;;6.63;1.77;;;;;;;;;;5047555;28;20227;-76
2023/11/01 11:47:37;;;;;;;7.70;2.05;;;;;;;;;;5046880;28;20749;-80
2023/11/01 11:50:07;;;;;;;7.20;1.42;;;;;;;;;;5032120;28;20234;-78
2023/11/01 11:52:35;;;;;;;7.85;1.70;;;;;;;;;;5047328;28;20231;-78
2023/11/01 11:55:03;;;;;;;7.18;1.80;;;;;;;;;;5047114;28;20208;-78
2023/11/01 11:57:31;;;;;;;10.88;2.50;;;;;;;;;;5032442;28;20214;-77
2023/11/01 12:00:01;;;;;;;8.18;2.72;;;;;;;;;;5027263;28;20370;-78
2023/11/01 12:02:28;;;;;;;7.45;2.10;;;;;;;;;;5026478;28;20222;-78
2023/11/01 12:04:58;;;;;;;8.07;1.77;;;;;;;;;;5026436;28;20324;-78
2023/11/01 12:07:25;;;;;;;7.65;1.90;;;;;;;;;;5036733;28;20706;-78
2023/11/01 12:09:52;;;;;;;8.93;1.88;;;;;;;;;;5036699;28;20215;-77
2023/11/01 12:12:20;;;;;;;7.60;2.75;;;;;;;;;;5026549;28;20250;-77
2023/11/01 12:14:48;;;;;;;8.98;2.17;;;;;;;;;;5027266;28;20266;-78
2023/11/01 12:17:15;;;;;;;6.30;2.17;;;;;;;;;;5030942;28;20215;-78
2023/11/01 12:19:45;;;;;;;5.82;2.22;;;;;;;;;;5039822;28;20255;-78
2023/11/01 12:22:15;;;;;;;9.80;1.88;;;;;;;;;;5037801;28;20669;-77
2023/11/01 12:24:44;;;;;;;6.68;2.30;;;;;;;;;;5027011;28;20253;-78
2023/11/01 12:27:13;;;;;;;10.35;2.17;;;;;;;;;;5028796;28;20251;-78
2023/11/01 12:29:45;;;;;;;6.85;2.10;;;;;;;;;;5039528;28;20651;-79
2023/11/01 12:32:13;;;;;;;10.23;1.88;;;;;;;;;;5032979;28;20203;-76
2023/11/01 12:34:41;;;;;;;5.20;1.80;;;;;;;;;;5033209;28;20205;-80
2023/11/01 12:37:10;;;;;;;8.88;2.05;;;;;;;;;;5035589;28;20270;-78
2023/11/01 12:39:39;;;;;;;7.00;1.55;;;;;;;;;;5047038;28;20227;-79
2023/11/01 12:42:22;;;;;;;11.15;2.13;;;;;;;;;;5037815;28;20192;-77
2023/11/01 12:44:50;;;;;;;8.48;2.35;;;;;;;;;;5047860;28;20219;-78
2023/11/01 12:47:17;;;;;;;9.30;2.15;;;;;;;;;;5033698;28;20200;-79
2023/11/01 12:49:44;;;;;;;12.13;2.33;;;;;;;;;;5038490;28;20287;-80
2023/11/01 12:52:11;;;;;;;11.32;2.47;;;;;;;;;;5043355;28;20196;-78
2023/11/01 12:54:41;;;;;;;8.98;2.20;;;;;;;;;;5033691;28;20224;-77
2023/11/01 12:57:09;;;;;;;11.88;2.63;;;;;;;;;;5029463;28;20205;-78
2023/11/01 12:59:36;;;;;;;9.63;2.40;;;;;;;;;;5045236;28;20262;-77
2023/11/01 13:02:03;;;;;;;7.05;1.80;;;;;;;;;;5035660;28;20200;-79
2023/11/01 13:04:30;;;;;;;8.32;1.85;;;;;;;;;;5034694;28;20246;-79
2023/11/01 13:06:58;;;;;;;6.80;1.95;;;;;;;;;;5035175;28;20196;-79
2023/11/01 13:09:26;;;;;;;7.75;1.90;;;;;;;;;;5034871;28;20231;-80
2023/11/01 13:11:54;;;;;;;10.18;2.15;;;;;;;;;;5035180;28;20291;-78
2023/11/01 13:14:22;;;;;;;9.90;2.10;;;;;;;;;;5034766;28;20299;-78
2023/11/01 13:16:49;;;;;;;6.40;1.98;;;;;;;;;;5033057;28;20232;-78
2023/11/01 13:19:17;;;;;;;9.65;1.73;;;;;;;;;;5034652;28;20324;-78
2023/11/01 13:21:44;;;;;;;11.30;2.22;;;;;;;;;;5034533;28;20193;-78
2023/11/01 13:24:11;;;;;;;9.43;1.90;;;;;;;;;;5044347;28;20333;-79
2023/11/01 13:26:39;;;;;;;8.45;1.92;;;;;;;;;;5034567;28;20204;-78
2023/11/01 13:29:08;;;;;;;13.93;2.38;;;;;;;;;;5031449;28;20197;-78
2023/11/01 13:31:35;;;;;;;9.52;2.20;;;;;;;;;;5033605;28;20251;-79
2023/11/01 13:34:02;;;;;;;11.30;2.72;;;;;;;;;;5033623;28;20291;-78
2023/11/01 13:36:30;;;;;;;9.93;2.20;;;;;;;;;;5053650;28;20200;-79
2023/11/01 13:38:57;;;;;;;10.50;2.55;;;;;;;;;;5034593;28;20248;-78
2023/11/01 13:41:24;;;;;;;11.05;3.03;;;;;;;;;;5034096;28;20205;-79
2023/11/01 13:43:52;;;;;;;13.40;2.80;;;;;;;;;;5033997;28;20224;-77
2023/11/01 13:46:20;;;;;;;10.93;2.85;;;;;;;;;;5032461;28;20224;-78
2023/11/01 13:48:47;;;;;;;11.70;2.70;;;;;;;;;;5034261;28;20228;-78
2023/11/01 13:51:15;;;;;;;12.07;3.33;;;;;;;;;;5034086;28;20292;-79
2023/11/01 13:53:42;;;;;;;7.47;2.20;;;;;;;;;;5032611;28;20196;-78
2023/11/01 13:56:09;;;;;;;12.05;3.17;;;;;;;;;;5032529;28;20224;-80
2023/11/01 13:58:37;;;;;;;9.73;3.20;;;;;;;;;;5032826;28;20255;-78
2023/11/01 14:01:05;;;;;;;8.50;3.60;;;;;;;;;;5028291;28;20197;-79
2023/11/01 14:03:36;;;;;;;10.45;3.15;;;;;;;;;;5029932;28;20589;-80
2023/11/01 14:06:03;;;;;;;7.90;2.97;;;;;;;;;;5021680;28;20200;-79
2023/11/01 14:08:30;;;;;;;10.63;3.78;;;;;;;;;;5039249;28;20273;-79
2023/11/01 14:10:58;;;;;;;10.67;3.20;;;;;;;;;;5038646;28;20201;-79
2023/11/01 14:13:27;;;;;;;11.60;3.20;;;;;;;;;;5037944;28;20210;-78
2023/11/01 14:15:55;;;;;;;11.73;4.00;;;;;;;;;;5034224;28;20233;-77
2023/11/01 14:18:22;;;;;;;12.77;3.63;;;;;;;;;;5033360;28;20196;-79
2023/11/01 14:20:51;;;;;;;13.07;4.40;;;;;;;;;;5033363;28;20250;-78
2023/11/01 14:23:19;;;;;;;11.17;4.33;;;;;;;;;;5033350;28;20207;-79
2023/11/01 14:25:46;;;;;;;13.13;3.50;;;;;;;;;;5032957;28;20193;-80
2023/11/01 14:28:17;;;;;;;8.83;2.50;;;;;;;;;;5032808;28;20200;-79
2023/11/01 14:30:44;;;;;;;12.83;3.10;;;;;;;;;;5033300;28;20686;-79
2023/11/01 14:33:11;;;;;;;11.63;3.50;;;;;;;;;;5033139;28;20231;-79
2023/11/01 14:35:39;;;;;;;13.77;3.10;;;;;;;;;;5043288;28;20204;-79
2023/11/01 14:38:08;;;;;;;11.13;2.20;;;;;;;;;;5027916;28;20205;-77
2023/11/01 14:40:35;;;;;;;9.20;2.40;;;;;;;;;;5033068;28;20233;-78
2023/11/01 14:43:03;;;;;;;9.13;2.00;;;;;;;;;;5032491;28;20227;-79